Metar z połowy godziny Komunikat METAR ze strony awiacja.imgw.pl Metar G30 EPLL METAR EPLL 172030Z VRB02KT 9000 NSC 13/09 Q1021 =